Time;durP1;ratioP1;P1;durP2;ratioP2;P2;SDS_P1;SDS_P2;PMS_P1;PMS_P2;Temp;Humidity;BMP_temperature;BMP_pressure;BME280_temperature;BME280_humidity;BME280_pressure;Samples;Min_cycle;Max_cycle;Signal;HPM_P1;HPM_P2
2021/06/18 00:00:01;;;;;;;6.35;5.85;;;22.50;66.00;;;;;;2033703;29;20341;-69
2021/06/18 00:01:01;;;;;;;6.35;5.72;;;22.50;65.20;;;;;;2034480;29;20516;-69
2021/06/18 00:02:03;;;;;;;6.13;5.63;;;22.50;64.70;;;;;;2034678;29;20036;-69
2021/06/18 00:03:04;;;;;;;6.78;5.90;;;22.50;64.50;;;;;;2027299;29;20028;-69
2021/06/18 00:04:04;;;;;;;6.90;6.25;;;22.50;64.50;;;;;;2033477;29;20024;-69
2021/06/18 00:05:07;;;;;;;6.53;5.75;;;22.40;64.50;;;;;;2042006;29;20107;-69
2021/06/18 00:06:08;;;;;;;6.47;5.90;;;22.40;64.60;;;;;;2041814;29;20472;-70
2021/06/18 00:07:08;;;;;;;6.65;5.82;;;22.40;64.70;;;;;;2041472;29;20043;-70
2021/06/18 00:08:09;;;;;;;7.10;6.38;;;22.30;64.60;;;;;;2041155;29;20034;-70
2021/06/18 00:09:10;;;;;;;6.45;5.90;;;22.30;64.90;;;;;;2041152;29;20102;-71
2021/06/18 00:10:13;;;;;;;8.07;6.40;;;22.30;65.20;;;;;;2032408;29;20031;-70
2021/06/18 00:11:14;;;;;;;6.82;6.20;;;22.30;65.20;;;;;;2033474;29;20032;-71
2021/06/18 00:12:14;;;;;;;6.35;5.80;;;22.30;65.30;;;;;;2033334;29;20123;-70
2021/06/18 00:13:15;;;;;;;8.20;6.30;;;22.30;65.60;;;;;;2032542;29;20027;-70
2021/06/18 00:14:15;;;;;;;6.97;6.30;;;22.20;65.70;;;;;;2041685;29;20040;-70
2021/06/18 00:15:16;;;;;;;6.68;6.07;;;22.20;65.90;;;;;;2041790;29;20078;-70
2021/06/18 00:16:17;;;;;;;7.40;6.70;;;22.20;66.10;;;;;;2041401;29;20107;-70
2021/06/18 00:17:17;;;;;;;6.45;5.82;;;22.20;66.20;;;;;;2041320;29;20127;-70
2021/06/18 00:18:18;;;;;;;6.57;5.90;;;22.10;66.30;;;;;;2041016;29;20035;-72
2021/06/18 00:19:19;;;;;;;6.80;6.20;;;22.10;66.40;;;;;;2041379;29;20587;-71
2021/06/18 00:20:20;;;;;;;6.53;5.93;;;22.10;66.60;;;;;;2032472;29;20091;-70
2021/06/18 00:21:20;;;;;;;6.95;6.25;;;22.10;66.60;;;;;;2032852;29;20488;-70
2021/06/18 00:22:21;;;;;;;6.78;6.18;;;22.10;67.50;;;;;;2041308;29;20036;-70
2021/06/18 00:23:22;;;;;;;6.80;6.20;;;22.10;68.50;;;;;;2041387;29;20040;-71
2021/06/18 00:24:22;;;;;;;7.05;6.45;;;22.10;70.00;;;;;;2041313;29;20036;-72
2021/06/18 00:25:23;;;;;;;7.07;6.47;;;22.10;70.60;;;;;;2041391;29;20131;-70
2021/06/18 00:26:23;;;;;;;6.75;6.15;;;22.10;71.00;;;;;;2041155;29;20028;-70
2021/06/18 00:27:27;;;;;;;7.10;6.22;;;22.10;71.00;;;;;;2032943;29;20032;-72
2021/06/18 00:28:28;;;;;;;6.55;5.95;;;22.10;71.20;;;;;;2024824;29;20077;-70
2021/06/18 00:29:28;;;;;;;7.43;6.70;;;22.10;71.70;;;;;;2035689;29;20513;-70
2021/06/18 00:30:29;;;;;;;7.05;6.35;;;22.10;72.80;;;;;;2040506;29;20034;-70
2021/06/18 00:31:30;;;;;;;7.07;6.38;;;22.00;72.70;;;;;;2035903;29;20511;-70
2021/06/18 00:32:30;;;;;;;7.07;6.47;;;22.00;72.60;;;;;;2040723;29;20035;-71
2021/06/18 00:33:31;;;;;;;7.38;6.20;;;22.00;72.20;;;;;;2041338;29;20043;-71
2021/06/18 00:34:31;;;;;;;7.15;6.45;;;22.00;72.10;;;;;;2040414;29;20050;-70
2021/06/18 00:35:33;;;;;;;7.10;6.32;;;22.00;72.10;;;;;;2040641;29;20142;-70
2021/06/18 00:36:33;;;;;;;8.90;6.40;;;21.90;72.10;;;;;;2041208;29;20063;-70
2021/06/18 00:37:34;;;;;;;6.72;6.10;;;21.90;72.20;;;;;;2041222;29;20039;-70
2021/06/18 00:38:35;;;;;;;9.02;6.47;;;21.80;72.40;;;;;;2040865;29;20512;-71
2021/06/18 00:39:36;;;;;;;7.00;6.30;;;21.80;72.60;;;;;;2041178;29;20039;-69
2021/06/18 00:40:36;;;;;;;7.30;6.60;;;21.80;72.80;;;;;;2040657;29;20118;-71
2021/06/18 00:41:37;;;;;;;7.45;6.70;;;21.80;72.80;;;;;;2041146;29;20119;-71
2021/06/18 00:42:38;;;;;;;7.15;6.45;;;21.70;72.90;;;;;;2040913;29;20031;-71
2021/06/18 00:43:38;;;;;;;6.85;6.25;;;21.70;72.30;;;;;;2041200;29;20086;-69
2021/06/18 00:44:39;;;;;;;7.20;6.57;;;21.70;72.30;;;;;;2040974;29;20059;-70
2021/06/18 00:45:40;;;;;;;6.90;6.30;;;21.70;72.40;;;;;;2032676;29;20115;-70
2021/06/18 00:46:41;;;;;;;6.95;6.25;;;21.70;72.10;;;;;;2032721;29;20034;-70
2021/06/18 00:47:48;;;;;;;7.18;6.47;;;21.70;71.70;;;;;;2041225;29;20039;-70
2021/06/18 00:48:50;;;;;;;7.28;6.53;;;21.70;71.40;;;;;;2040890;29;20038;-71
2021/06/18 00:49:52;;;;;;;7.18;6.57;;;21.60;71.20;;;;;;2042036;29;20055;-71
2021/06/18 00:50:53;;;;;;;7.57;6.80;;;21.60;70.80;;;;;;2039649;29;20027;-70
2021/06/18 00:51:55;;;;;;;7.05;6.40;;;21.60;70.60;;;;;;2041529;29;20038;-71
2021/06/18 00:52:57;;;;;;;7.20;6.50;;;21.60;70.60;;;;;;2041590;29;20016;-70
2021/06/18 00:53:57;;;;;;;7.45;6.63;;;21.60;70.50;;;;;;2041408;29;20130;-70
2021/06/18 00:54:58;;;;;;;7.90;7.10;;;21.60;72.00;;;;;;2041489;29;20427;-70
2021/06/18 00:56:00;;;;;;;7.97;7.22;;;21.60;74.10;;;;;;2041596;29;20040;-70
2021/06/18 00:57:01;;;;;;;8.50;7.40;;;21.60;75.50;;;;;;2041217;29;20035;-70
2021/06/18 00:58:02;;;;;;;8.18;7.38;;;21.60;76.20;;;;;;2040708;29;20098;-71
2021/06/18 00:59:03;;;;;;;7.55;6.85;;;21.60;76.30;;;;;;2040968;29;20036;-70
2021/06/18 01:00:07;;;;;;;7.43;6.72;;;21.50;76.30;;;;;;2040516;29;20036;-70
2021/06/18 01:01:07;;;;;;;7.07;6.38;;;21.50;76.10;;;;;;2039735;29;20031;-70
2021/06/18 01:02:08;;;;;;;7.68;6.97;;;21.50;75.60;;;;;;2032795;29;20036;-70
2021/06/18 01:03:09;;;;;;;8.02;6.82;;;21.50;75.80;;;;;;2041088;29;20035;-71
2021/06/18 01:04:10;;;;;;;7.95;7.15;;;21.50;74.70;;;;;;2032488;29;20043;-70
2021/06/18 01:05:13;;;;;;;8.80;7.00;;;21.50;74.70;;;;;;2032498;29;20035;-70
2021/06/18 01:06:21;;;;;;;7.43;6.57;;;21.40;74.80;;;;;;2039724;29;20396;-70
2021/06/18 01:07:30;;;;;;;7.38;6.68;;;21.40;75.00;;;;;;2030803;29;20214;-71
2021/06/18 01:08:44;;;;;;;7.43;6.65;;;21.40;74.80;;;;;;2022439;29;20036;-70
2021/06/18 01:10:10;;;;;;;8.57;7.00;;;21.40;75.60;;;;;;2034475;29;20032;-70
2021/06/18 01:11:24;;;;;;;7.70;6.90;;;21.40;77.30;;;;;;2032291;29;20583;-70
2021/06/18 01:12:26;;;;;;;7.80;7.00;;;21.40;78.20;;;;;;2033988;29;20031;-70
2021/06/18 01:13:38;;;;;;;8.32;7.40;;;21.40;78.50;;;;;;2040967;29;20112;-70
2021/06/18 01:14:52;;;;;;;8.10;6.68;;;21.40;77.90;;;;;;2032637;29;20040;-70
2021/06/18 01:16:05;;;;;;;7.70;6.85;;;21.40;77.40;;;;;;2034712;29;20080;-70
2021/06/18 01:17:21;;;;;;;7.90;7.10;;;21.40;77.00;;;;;;2041914;29;20036;-70
2021/06/18 01:18:37;;;;;;;7.75;6.90;;;21.30;76.90;;;;;;2032505;29;20043;-70
2021/06/18 01:19:53;;;;;;;7.72;6.93;;;21.30;76.80;;;;;;2036081;29;20388;-71
2021/06/18 01:21:09;;;;;;;7.30;6.63;;;21.30;76.80;;;;;;2041385;29;20027;-70
2021/06/18 01:22:15;;;;;;;7.40;6.70;;;21.30;76.70;;;;;;2041710;29;20031;-71
2021/06/18 01:23:28;;;;;;;8.98;6.88;;;21.20;76.30;;;;;;2041331;29;20016;-70
2021/06/18 01:24:50;;;;;;;7.18;6.47;;;21.20;76.10;;;;;;2040163;29;20074;-70
2021/06/18 01:26:03;;;;;;;7.68;6.88;;;21.20;75.70;;;;;;2040603;29;20028;-71
2021/06/18 01:27:19;;;;;;;7.50;6.68;;;21.20;75.30;;;;;;2040909;29;20079;-70
2021/06/18 01:28:41;;;;;;;7.65;6.80;;;21.10;74.90;;;;;;2031857;29;20028;-70
2021/06/18 01:29:52;;;;;;;7.57;6.47;;;21.10;74.70;;;;;;2035255;29;20032;-70
2021/06/18 01:30:53;;;;;;;7.45;6.75;;;21.10;74.60;;;;;;2040218;29;20395;-70
2021/06/18 01:31:56;;;;;;;7.50;6.80;;;21.10;74.30;;;;;;2040940;29;20024;-70
2021/06/18 01:33:05;;;;;;;7.07;6.38;;;21.10;74.00;;;;;;2040593;29;20031;-70
2021/06/18 01:34:25;;;;;;;6.80;6.10;;;21.10;73.90;;;;;;2041205;29;20034;-70
2021/06/18 01:35:47;;;;;;;7.30;6.60;;;21.10;73.80;;;;;;2041169;29;20028;-70
2021/06/18 01:36:52;;;;;;;7.20;6.50;;;21.10;73.60;;;;;;2032673;29;20064;-69
2021/06/18 01:37:56;;;;;;;7.00;6.30;;;21.00;73.20;;;;;;2032948;29;20064;-69
2021/06/18 01:38:59;;;;;;;8.75;6.68;;;21.00;72.90;;;;;;2040831;29;20027;-69
2021/06/18 01:40:05;;;;;;;6.60;5.90;;;21.00;72.70;;;;;;2031571;29;20032;-69
2021/06/18 01:41:10;;;;;;;8.18;6.32;;;21.00;72.60;;;;;;2024801;29;20044;-69
2021/06/18 01:42:11;;;;;;;7.88;6.80;;;21.00;72.50;;;;;;2032242;29;20427;-68
2021/06/18 01:43:14;;;;;;;7.13;6.43;;;21.00;72.40;;;;;;2040566;29;20067;-68
2021/06/18 01:44:21;;;;;;;8.30;6.40;;;21.00;72.40;;;;;;2120069;27;20131;-69
2021/06/18 01:45:26;;;;;;;7.45;6.75;;;21.00;72.40;;;;;;2111822;28;20024;-70
2021/06/18 01:46:30;;;;;;;8.10;6.78;;;21.00;72.30;;;;;;2112349;28;20027;-70
2021/06/18 01:47:31;;;;;;;7.10;6.40;;;21.00;72.30;;;;;;2114097;28;20532;-69
2021/06/18 01:48:34;;;;;;;6.65;6.10;;;21.00;72.20;;;;;;2113223;28;20097;-69
2021/06/18 01:49:39;;;;;;;7.20;6.50;;;21.00;72.10;;;;;;2112366;28;20075;-69
2021/06/18 01:50:41;;;;;;;7.43;6.47;;;21.00;72.10;;;;;;2111805;28;20015;-69
2021/06/18 01:51:45;;;;;;;6.90;6.20;;;21.00;72.10;;;;;;2112403;28;20040;-69
2021/06/18 01:53:19;;;;;;;7.20;6.50;;;21.00;72.30;;;;;;2112197;28;20514;-69
2021/06/18 01:54:26;;;;;;;7.15;6.45;;;21.00;73.10;;;;;;2103094;28;20040;-69
2021/06/18 01:55:28;;;;;;;7.57;6.53;;;21.00;72.20;;;;;;2104689;28;20028;-69
2021/06/18 01:56:31;;;;;;;7.85;6.72;;;21.00;72.10;;;;;;2112205;28;20027;-69
2021/06/18 01:57:33;;;;;;;7.03;6.40;;;21.00;72.00;;;;;;2112928;28;20019;-69
2021/06/18 01:58:34;;;;;;;8.32;6.63;;;21.00;71.90;;;;;;2109882;28;20031;-69
2021/06/18 01:59:37;;;;;;;7.32;6.68;;;21.00;71.80;;;;;;2107899;28;20004;-69
2021/06/18 02:00:44;;;;;;;7.07;6.47;;;21.00;71.70;;;;;;2112110;28;20106;-69
2021/06/18 02:01:47;;;;;;;7.07;6.47;;;21.00;71.60;;;;;;2112613;28;20146;-69
2021/06/18 02:02:49;;;;;;;7.15;6.50;;;21.00;71.40;;;;;;2111841;28;20023;-69
2021/06/18 02:03:51;;;;;;;7.90;6.80;;;21.00;71.50;;;;;;2111864;28;20518;-69
2021/06/18 02:04:52;;;;;;;7.18;6.47;;;21.00;71.60;;;;;;2112579;28;20371;-69
2021/06/18 02:05:56;;;;;;;7.20;6.50;;;21.00;71.70;;;;;;2112582;28;20046;-69
2021/06/18 02:06:57;;;;;;;8.32;6.05;;;21.00;71.70;;;;;;2112650;28;20446;-69
2021/06/18 02:07:59;;;;;;;7.30;6.60;;;20.90;71.50;;;;;;2112389;28;20024;-69
2021/06/18 02:09:00;;;;;;;7.15;6.45;;;20.90;71.60;;;;;;2112434;28;20029;-68
2021/06/18 02:10:06;;;;;;;7.05;6.35;;;20.90;71.50;;;;;;2111452;28;20551;-69
2021/06/18 02:11:07;;;;;;;7.15;6.45;;;20.90;71.60;;;;;;2111793;28;20024;-70
2021/06/18 02:12:09;;;;;;;9.75;6.88;;;20.90;71.60;;;;;;2103782;28;20121;-70
2021/06/18 02:13:12;;;;;;;7.45;6.45;;;20.90;71.70;;;;;;2103663;28;20037;-69
2021/06/18 02:14:17;;;;;;;7.05;6.45;;;20.90;71.80;;;;;;2112104;28;20063;-69
2021/06/18 02:15:18;;;;;;;7.57;6.40;;;20.90;71.80;;;;;;2112058;28;20160;-69
2021/06/18 02:16:18;;;;;;;7.10;6.40;;;20.90;71.90;;;;;;2112780;28;20016;-71
2021/06/18 02:17:21;;;;;;;8.10;6.60;;;20.90;72.00;;;;;;2111844;28;20701;-70
2021/06/18 02:18:25;;;;;;;7.20;6.57;;;20.80;72.00;;;;;;2111615;28;20063;-69
2021/06/18 02:19:28;;;;;;;7.65;6.80;;;20.80;72.20;;;;;;2112840;28;20042;-70
2021/06/18 02:20:30;;;;;;;7.00;6.40;;;20.80;72.40;;;;;;2112058;28;20843;-70
2021/06/18 02:21:32;;;;;;;7.63;6.93;;;20.80;72.40;;;;;;2111989;28;20052;-70
2021/06/18 02:22:35;;;;;;;7.28;6.32;;;20.80;72.40;;;;;;2112984;28;20024;-69
2021/06/18 02:23:37;;;;;;;7.40;6.80;;;20.80;72.30;;;;;;2113113;28;20036;-71
2021/06/18 02:24:40;;;;;;;6.82;6.22;;;20.80;72.20;;;;;;2114604;28;20387;-70
2021/06/18 02:25:41;;;;;;;7.18;6.50;;;20.80;72.30;;;;;;2114102;28;20051;-71
2021/06/18 02:26:43;;;;;;;8.20;7.28;;;20.80;72.40;;;;;;2113322;28;20819;-71
2021/06/18 02:27:44;;;;;;;7.97;7.18;;;20.80;72.80;;;;;;2112856;28;20035;-72
2021/06/18 02:28:45;;;;;;;9.05;7.20;;;20.80;72.80;;;;;;2107405;28;20488;-73
2021/06/18 02:29:46;;;;;;;16.25;7.20;;;20.80;73.20;;;;;;2099996;28;20028;-70
2021/06/18 02:30:47;;;;;;;9.68;8.25;;;20.80;74.40;;;;;;2102684;28;20036;-69
2021/06/18 02:31:48;;;;;;;8.70;7.80;;;20.80;75.50;;;;;;2103271;28;20024;-70
2021/06/18 02:32:51;;;;;;;8.80;7.85;;;20.80;76.80;;;;;;2111777;28;20631;-72
2021/06/18 02:33:52;;;;;;;9.25;7.50;;;20.80;77.40;;;;;;2112398;28;20032;-71
2021/06/18 02:34:53;;;;;;;12.18;8.07;;;20.80;78.00;;;;;;2111783;28;20038;-70
2021/06/18 02:35:54;;;;;;;11.00;7.70;;;20.80;79.60;;;;;;2111486;28;20058;-70
2021/06/18 02:36:55;;;;;;;15.65;8.00;;;20.70;78.90;;;;;;2111779;28;20107;-70
2021/06/18 02:37:56;;;;;;;10.75;7.40;;;20.70;78.80;;;;;;2103184;28;20053;-70
2021/06/18 02:38:57;;;;;;;8.93;7.40;;;20.70;78.60;;;;;;2111383;28;20028;-70
2021/06/18 02:39:57;;;;;;;7.85;6.95;;;20.70;78.30;;;;;;2111820;28;20521;-71
2021/06/18 02:40:58;;;;;;;8.63;7.30;;;20.70;78.10;;;;;;2111493;28;20032;-70
2021/06/18 02:41:59;;;;;;;8.85;6.97;;;20.70;79.00;;;;;;2111609;28;20161;-70
2021/06/18 02:43:00;;;;;;;8.25;7.35;;;20.60;78.20;;;;;;2111560;28;20080;-70
2021/06/18 02:44:04;;;;;;;8.32;6.93;;;20.60;78.40;;;;;;2112198;28;20554;-70
2021/06/18 02:45:05;;;;;;;8.50;7.15;;;20.60;78.10;;;;;;2112424;28;20036;-70
2021/06/18 02:46:06;;;;;;;7.78;7.07;;;20.60;78.00;;;;;;2112553;28;20406;-70
2021/06/18 02:47:14;;;;;;;7.95;7.15;;;20.50;77.80;;;;;;2112591;28;20032;-69
2021/06/18 02:48:19;;;;;;;11.40;7.43;;;20.50;77.80;;;;;;2103641;28;20028;-70
2021/06/18 02:49:29;;;;;;;9.57;7.05;;;20.50;77.80;;;;;;2104670;28;20048;-70
2021/06/18 02:50:57;;;;;;;8.23;7.22;;;20.50;77.80;;;;;;2111834;28;20031;-70
2021/06/18 02:52:05;;;;;;;7.97;7.18;;;20.50;77.90;;;;;;2112889;28;20043;-70
2021/06/18 02:53:12;;;;;;;7.95;7.25;;;20.50;77.70;;;;;;2112200;28;20442;-70
2021/06/18 02:54:27;;;;;;;8.57;7.60;;;20.50;77.70;;;;;;2112424;28;20023;-69
2021/06/18 02:55:41;;;;;;;7.85;7.07;;;20.50;77.70;;;;;;2107797;28;20024;-70
2021/06/18 02:56:46;;;;;;;7.75;7.00;;;20.40;77.70;;;;;;2097990;28;20103;-69
2021/06/18 02:58:11;;;;;;;7.65;6.95;;;20.50;77.60;;;;;;2098608;28;20033;-70
2021/06/18 02:59:17;;;;;;;7.72;6.93;;;20.50;77.60;;;;;;2095780;28;20060;-70
2021/06/18 03:00:20;;;;;;;7.57;6.78;;;20.40;77.80;;;;;;2106116;28;20028;-71
2021/06/18 03:01:24;;;;;;;7.80;7.13;;;20.40;77.90;;;;;;2106729;28;20044;-71
2021/06/18 03:02:32;;;;;;;7.88;7.18;;;20.40;78.90;;;;;;2106852;28;20471;-70
2021/06/18 03:03:44;;;;;;;7.78;7.05;;;20.40;78.40;;;;;;2106595;28;20070;-70
2021/06/18 03:04:46;;;;;;;8.40;7.53;;;20.40;79.20;;;;;;2106630;28;20686;-70
2021/06/18 03:05:49;;;;;;;8.68;7.55;;;20.40;79.10;;;;;;2106833;28;20129;-70
2021/06/18 03:06:52;;;;;;;8.48;7.68;;;20.40;78.80;;;;;;2106508;28;20423;-70
2021/06/18 03:07:59;;;;;;;7.95;7.15;;;20.40;79.10;;;;;;2106816;28;20027;-71
2021/06/18 03:09:03;;;;;;;8.82;7.38;;;20.40;79.60;;;;;;2105962;28;20035;-69
2021/06/18 03:10:07;;;;;;;8.05;7.25;;;20.40;80.20;;;;;;2105639;28;20020;-70
2021/06/18 03:11:09;;;;;;;8.23;7.43;;;20.40;80.50;;;;;;2106802;28;20028;-70
2021/06/18 03:12:12;;;;;;;8.40;7.50;;;20.40;80.80;;;;;;2106955;28;20123;-70
2021/06/18 03:13:36;;;;;;;8.70;7.80;;;20.40;81.00;;;;;;2106794;28;20399;-70
2021/06/18 03:14:37;;;;;;;8.50;7.60;;;20.40;81.20;;;;;;2106213;28;20035;-70
2021/06/18 03:15:42;;;;;;;8.32;7.25;;;20.40;81.00;;;;;;2106459;28;20024;-70
2021/06/18 03:16:45;;;;;;;9.35;7.50;;;20.40;80.70;;;;;;2106023;28;20032;-70
2021/06/18 03:17:47;;;;;;;8.45;7.65;;;20.40;80.60;;;;;;2105879;28;20089;-70
2021/06/18 03:18:49;;;;;;;8.32;7.45;;;20.40;80.90;;;;;;2105979;28;20020;-71
2021/06/18 03:19:54;;;;;;;8.30;7.30;;;20.40;81.20;;;;;;2106378;28;20056;-70
2021/06/18 03:20:59;;;;;;;8.38;7.55;;;20.40;81.10;;;;;;2105718;28;20036;-70
2021/06/18 03:22:02;;;;;;;8.07;7.28;;;20.40;81.10;;;;;;2106275;28;20028;-70
2021/06/18 03:23:06;;;;;;;7.68;6.97;;;20.40;81.00;;;;;;2106377;28;20096;-71
2021/06/18 03:24:08;;;;;;;8.25;7.40;;;20.40;81.10;;;;;;2106296;28;20032;-70
2021/06/18 03:25:10;;;;;;;8.13;7.35;;;20.40;81.20;;;;;;2106413;28;20738;-71
2021/06/18 03:26:11;;;;;;;8.73;7.78;;;20.40;81.30;;;;;;2106162;28;20088;-71
2021/06/18 03:27:13;;;;;;;8.90;7.70;;;20.40;81.20;;;;;;2106409;28;20024;-71
2021/06/18 03:28:15;;;;;;;8.30;7.40;;;20.50;81.00;;;;;;2106091;28;20111;-69
2021/06/18 03:29:17;;;;;;;8.18;7.38;;;20.50;80.90;;;;;;2097952;28;20027;-70
2021/06/18 03:30:18;;;;;;;7.85;7.05;;;20.50;80.90;;;;;;2105474;28;20013;-72
2021/06/18 03:31:20;;;;;;;7.93;7.22;;;20.50;80.90;;;;;;2106497;28;20024;-71
2021/06/18 03:32:23;;;;;;;7.85;7.00;;;20.50;80.80;;;;;;2106874;28;20012;-69
2021/06/18 03:33:25;;;;;;;8.30;7.50;;;20.50;80.70;;;;;;2106761;28;20106;-71
2021/06/18 03:34:28;;;;;;;8.18;7.35;;;20.60;80.70;;;;;;2106420;28;20096;-71
2021/06/18 03:35:30;;;;;;;7.97;7.25;;;20.60;80.50;;;;;;2106508;28;20395;-69
2021/06/18 03:36:31;;;;;;;8.07;7.28;;;20.60;80.20;;;;;;2105814;28;20103;-70
2021/06/18 03:37:32;;;;;;;8.15;7.30;;;20.60;80.10;;;;;;2106033;28;20017;-70
2021/06/18 03:38:35;;;;;;;8.40;7.50;;;20.60;79.30;;;;;;2106169;28;20104;-70
2021/06/18 03:39:37;;;;;;;8.52;7.57;;;20.70;79.20;;;;;;2106320;28;20032;-70
2021/06/18 03:40:39;;;;;;;7.95;7.18;;;20.70;79.00;;;;;;2104982;28;20107;-70
2021/06/18 03:41:40;;;;;;;9.85;7.47;;;20.70;78.50;;;;;;2105633;28;20028;-70
2021/06/18 03:42:41;;;;;;;8.82;7.40;;;20.70;78.20;;;;;;2106179;28;20119;-70
2021/06/18 03:43:42;;;;;;;8.43;7.63;;;20.70;77.80;;;;;;2105958;28;20032;-71
2021/06/18 03:44:44;;;;;;;7.95;7.15;;;20.80;76.80;;;;;;2105563;28;20123;-71
2021/06/18 03:45:54;;;;;;;8.60;7.43;;;20.80;75.80;;;;;;2105605;28;20078;-70
2021/06/18 03:46:57;;;;;;;8.07;7.28;;;20.80;75.70;;;;;;2106251;28;20487;-70
2021/06/18 03:48:00;;;;;;;9.10;7.55;;;20.80;75.50;;;;;;2106016;28;20379;-71
2021/06/18 03:49:01;;;;;;;9.15;7.78;;;20.90;75.00;;;;;;2105829;28;20478;-70
2021/06/18 03:50:03;;;;;;;9.90;7.50;;;20.90;74.10;;;;;;2105662;28;20043;-70
2021/06/18 03:51:06;;;;;;;11.80;7.53;;;20.90;73.50;;;;;;2105991;28;20036;-71
2021/06/18 03:52:07;;;;;;;9.30;7.72;;;21.00;73.60;;;;;;2106217;28;20547;-70
2021/06/18 03:53:09;;;;;;;8.82;7.68;;;21.00;72.70;;;;;;2106021;28;20032;-70
2021/06/18 03:54:10;;;;;;;7.78;7.05;;;21.00;72.60;;;;;;2105931;28;20866;-70
2021/06/18 03:55:11;;;;;;;9.77;7.00;;;21.10;72.50;;;;;;2105437;28;20032;-71
2021/06/18 03:56:12;;;;;;;8.75;7.57;;;21.10;72.00;;;;;;2105479;28;20055;-71
2021/06/18 03:57:17;;;;;;;8.00;7.30;;;21.20;71.20;;;;;;2105311;28;20542;-70
2021/06/18 03:58:20;;;;;;;9.48;7.35;;;21.20;71.10;;;;;;2104880;28;20761;-70
2021/06/18 03:59:22;;;;;;;9.25;7.35;;;21.20;71.00;;;;;;2099072;28;20150;-70
2021/06/18 04:00:23;;;;;;;8.05;7.15;;;21.30;70.90;;;;;;2105549;28;20024;-70
2021/06/18 04:01:26;;;;;;;8.40;7.10;;;21.30;70.70;;;;;;2105573;28;20024;-70
2021/06/18 04:02:27;;;;;;;9.30;7.38;;;21.40;70.50;;;;;;2105428;28;20039;-71
2021/06/18 04:03:28;;;;;;;9.82;7.45;;;21.60;70.30;;;;;;2105912;28;20534;-71
2021/06/18 04:04:31;;;;;;;7.93;7.13;;;21.90;69.40;;;;;;2105956;28;20487;-71
2021/06/18 04:05:34;;;;;;;7.40;6.70;;;22.30;67.60;;;;;;2105493;28;20016;-71
2021/06/18 04:06:35;;;;;;;7.15;6.45;;;22.80;66.10;;;;;;2105294;28;20781;-71
2021/06/18 04:07:37;;;;;;;7.70;6.68;;;23.20;64.00;;;;;;2105222;28;20107;-71
2021/06/18 04:08:37;;;;;;;7.50;6.80;;;23.70;62.10;;;;;;2105503;28;20047;-70
2021/06/18 04:09:39;;;;;;;7.15;6.45;;;24.10;60.20;;;;;;2096992;28;20047;-71
2021/06/18 04:10:41;;;;;;;7.20;6.43;;;24.60;58.90;;;;;;2096509;28;20045;-71
2021/06/18 04:11:44;;;;;;;9.07;6.25;;;25.00;57.60;;;;;;2105829;28;20487;-71
2021/06/18 04:12:48;;;;;;;6.97;6.28;;;25.40;56.60;;;;;;2105939;28;20020;-71
2021/06/18 04:13:49;;;;;;;7.13;6.40;;;25.80;55.60;;;;;;2105232;28;20209;-71
2021/06/18 04:14:50;;;;;;;9.05;6.20;;;26.00;54.10;;;;;;2105210;28;20028;-71
2021/06/18 04:15:50;;;;;;;9.60;6.32;;;26.10;53.30;;;;;;2105788;28;20501;-71
2021/06/18 04:16:51;;;;;;;6.50;5.90;;;26.30;53.00;;;;;;2105663;28;20035;-72
2021/06/18 04:17:52;;;;;;;6.90;6.07;;;26.60;52.60;;;;;;2105161;28;20635;-71
2021/06/18 04:18:54;;;;;;;6.60;5.88;;;26.90;52.10;;;;;;2104994;28;20024;-71
2021/06/18 04:19:56;;;;;;;10.02;6.30;;;27.20;51.60;;;;;;2105188;28;20031;-72
2021/06/18 04:20:58;;;;;;;10.30;6.60;;;27.30;50.60;;;;;;2105200;28;20107;-71
2021/06/18 04:22:04;;;;;;;7.85;5.97;;;27.50;50.40;;;;;;2105150;28;20031;-71
2021/06/18 04:23:05;;;;;;;6.88;6.18;;;27.60;50.00;;;;;;2105756;28;20031;-71
2021/06/18 04:24:06;;;;;;;6.43;5.78;;;27.90;49.70;;;;;;2105669;28;20038;-72
2021/06/18 04:25:08;;;;;;;8.45;5.90;;;28.00;49.40;;;;;;2105909;28;20023;-71
2021/06/18 04:26:09;;;;;;;8.55;5.88;;;28.20;49.00;;;;;;2105852;28;20032;-71
2021/06/18 04:27:09;;;;;;;8.05;6.55;;;28.30;48.70;;;;;;2105657;28;20032;-71
2021/06/18 04:28:10;;;;;;;7.30;5.70;;;28.30;48.00;;;;;;2105431;28;20129;-71
2021/06/18 04:29:12;;;;;;;8.20;6.25;;;28.30;48.00;;;;;;2098014;28;20365;-71
2021/06/18 04:30:14;;;;;;;12.65;6.18;;;28.20;48.00;;;;;;2104411;28;20035;-71
2021/06/18 04:31:14;;;;;;;8.48;6.10;;;28.20;48.30;;;;;;2105244;28;20043;-71
2021/06/18 04:32:16;;;;;;;7.45;5.90;;;28.30;48.30;;;;;;2105239;28;20066;-71
2021/06/18 04:33:16;;;;;;;9.27;6.13;;;28.30;47.80;;;;;;2105220;28;20491;-71
2021/06/18 04:34:18;;;;;;;5.90;5.30;;;28.40;47.70;;;;;;2105834;28;20016;-70
2021/06/18 04:35:19;;;;;;;7.03;6.32;;;28.70;47.70;;;;;;2106077;28;20162;-69
2021/06/18 04:36:20;;;;;;;6.32;5.50;;;28.80;46.80;;;;;;2105879;28;20024;-69
2021/06/18 04:37:21;;;;;;;6.18;5.57;;;29.00;46.40;;;;;;2105384;28;20080;-70
2021/06/18 04:38:21;;;;;;;6.20;5.53;;;29.00;46.20;;;;;;2096640;28;20016;-69
2021/06/18 04:39:22;;;;;;;6.35;5.38;;;29.10;46.00;;;;;;2105319;28;20020;-70
2021/06/18 04:40:23;;;;;;;6.20;5.60;;;29.20;46.00;;;;;;2104031;28;20035;-68
2021/06/18 04:41:23;;;;;;;5.93;5.32;;;29.40;45.50;;;;;;2105519;28;20020;-69
2021/06/18 04:42:24;;;;;;;6.22;5.63;;;29.60;45.20;;;;;;2105149;28;20399;-69
2021/06/18 04:43:24;;;;;;;8.10;5.70;;;29.60;44.90;;;;;;2105028;28;20024;-68
2021/06/18 04:44:25;;;;;;;7.38;5.38;;;29.70;44.60;;;;;;2105940;28;20046;-69
2021/06/18 04:45:26;;;;;;;6.40;5.30;;;29.60;44.80;;;;;;2104606;28;20024;-69
2021/06/18 04:46:27;;;;;;;6.25;5.65;;;29.90;44.80;;;;;;2104669;28;20132;-70
2021/06/18 04:47:28;;;;;;;7.45;5.40;;;30.00;44.40;;;;;;2096254;28;20029;-70
2021/06/18 04:48:31;;;;;;;6.35;5.70;;;30.20;44.50;;;;;;2096391;28;20388;-71
2021/06/18 04:49:32;;;;;;;6.78;5.20;;;30.40;44.20;;;;;;2105390;28;20055;-69
2021/06/18 04:50:33;;;;;;;6.30;5.70;;;30.50;44.40;;;;;;2104622;28;20411;-69
2021/06/18 04:51:33;;;;;;;6.95;5.63;;;30.20;43.20;;;;;;2105391;28;20143;-68
2021/06/18 04:52:36;;;;;;;7.45;5.80;;;30.40;43.20;;;;;;2105898;28;20016;-69
2021/06/18 04:53:36;;;;;;;6.50;5.38;;;30.40;43.20;;;;;;2106857;28;20435;-68
2021/06/18 04:54:37;;;;;;;6.20;5.55;;;30.50;42.90;;;;;;2106756;28;20028;-70
2021/06/18 04:55:39;;;;;;;6.75;5.35;;;30.50;42.80;;;;;;2107550;28;20047;-70
2021/06/18 04:56:41;;;;;;;6.30;5.70;;;30.50;42.90;;;;;;2106161;28;20041;-70
2021/06/18 04:57:43;;;;;;;8.55;5.40;;;30.60;42.30;;;;;;2106026;28;20032;-71
2021/06/18 04:58:44;;;;;;;9.00;5.45;;;30.50;42.50;;;;;;2102006;28;20483;-70
2021/06/18 04:59:44;;;;;;;6.60;5.55;;;30.40;42.40;;;;;;2102216;28;20026;-70
2021/06/18 05:00:45;;;;;;;6.18;5.30;;;30.30;42.70;;;;;;2105642;28;20774;-70
2021/06/18 05:01:46;;;;;;;5.88;5.30;;;30.40;42.70;;;;;;2105434;28;20028;-71
2021/06/18 05:02:47;;;;;;;7.30;5.60;;;30.40;42.70;;;;;;2089214;28;20036;-71
2021/06/18 05:03:48;;;;;;;5.97;5.35;;;30.50;42.60;;;;;;2097130;28;20040;-71
2021/06/18 05:04:48;;;;;;;5.75;5.13;;;30.50;42.40;;;;;;2105850;28;20020;-70
2021/06/18 05:05:49;;;;;;;7.72;5.30;;;30.50;42.20;;;;;;2105629;28;20036;-71
2021/06/18 05:06:49;;;;;;;8.60;5.43;;;30.60;41.80;;;;;;2105591;28;20039;-70
2021/06/18 05:07:55;;;;;;;7.10;5.07;;;30.50;41.80;;;;;;2105602;28;20415;-71
2021/06/18 05:08:55;;;;;;;5.45;4.95;;;30.60;41.90;;;;;;2104623;28;20028;-69
2021/06/18 05:09:56;;;;;;;5.70;5.20;;;30.70;41.80;;;;;;2104719;28;20445;-70
2021/06/18 05:10:58;;;;;;;7.88;5.03;;;30.80;41.50;;;;;;2104771;28;20027;-70
2021/06/18 05:11:59;;;;;;;6.32;5.28;;;30.80;41.40;;;;;;2105344;28;20473;-70
2021/06/18 05:12:59;;;;;;;6.03;5.03;;;31.00;41.30;;;;;;2105724;28;20039;-69
2021/06/18 05:14:00;;;;;;;8.50;5.30;;;31.00;41.20;;;;;;2106490;28;20122;-70
2021/06/18 05:15:01;;;;;;;6.68;5.03;;;31.10;40.70;;;;;;2105881;28;20470;-70
2021/06/18 05:16:01;;;;;;;8.98;5.03;;;31.20;40.70;;;;;;2105628;28;20028;-70
2021/06/18 05:17:05;;;;;;;6.53;5.13;;;31.40;40.60;;;;;;2105913;28;20032;-71
2021/06/18 05:18:05;;;;;;;7.28;4.68;;;31.60;40.40;;;;;;2104977;28;20503;-71
2021/06/18 05:19:07;;;;;;;5.97;4.70;;;31.60;40.00;;;;;;2104694;28;20026;-71
2021/06/18 05:20:08;;;;;;;7.53;5.00;;;31.80;39.70;;;;;;2105192;28;20107;-71
2021/06/18 05:21:09;;;;;;;5.50;5.00;;;31.70;39.30;;;;;;2105800;28;20038;-70
2021/06/18 05:22:09;;;;;;;5.10;4.60;;;31.80;39.50;;;;;;2097293;28;20068;-69
2021/06/18 05:23:10;;;;;;;5.60;4.95;;;31.70;39.50;;;;;;2089166;28;20025;-71
2021/06/18 05:24:10;;;;;;;6.07;4.78;;;31.60;39.50;;;;;;2105810;28;20142;-70
2021/06/18 05:25:12;;;;;;;9.35;5.10;;;31.70;39.60;;;;;;2106175;28;20072;-70
2021/06/18 05:26:12;;;;;;;6.20;5.10;;;31.70;39.50;;;;;;2105700;28;20022;-69
2021/06/18 05:27:13;;;;;;;5.15;4.60;;;31.90;39.00;;;;;;2105749;28;20024;-70
2021/06/18 05:28:14;;;;;;;5.13;4.63;;;32.00;38.80;;;;;;2105079;28;20464;-70